sensor_id;sensor_type;location;lat;lon;timestamp;temperature;humidity
76211;DHT22;65003;49.518;11.280;2022-12-29T00:00:46;8.60;68.20
76211;DHT22;65003;49.518;11.280;2022-12-29T00:03:13;8.60;68.30
76211;DHT22;65003;49.518;11.280;2022-12-29T00:05:40;8.60;68.30
76211;DHT22;65003;49.518;11.280;2022-12-29T00:08:07;8.70;68.10
76211;DHT22;65003;49.518;11.280;2022-12-29T00:10:34;8.70;68.00
76211;DHT22;65003;49.518;11.280;2022-12-29T00:13:01;8.80;68.00
76211;DHT22;65003;49.518;11.280;2022-12-29T00:15:35;8.80;67.50
76211;DHT22;65003;49.518;11.280;2022-12-29T00:18:03;8.80;67.60
76211;DHT22;65003;49.518;11.280;2022-12-29T00:20:33;8.80;67.40
76211;DHT22;65003;49.518;11.280;2022-12-29T00:23:02;8.80;67.50
76211;DHT22;65003;49.518;11.280;2022-12-29T00:25:35;8.80;67.80
76211;DHT22;65003;49.518;11.280;2022-12-29T00:28:08;8.70;68.00
76211;DHT22;65003;49.518;11.280;2022-12-29T00:30:41;8.80;67.80
76211;DHT22;65003;49.518;11.280;2022-12-29T00:33:14;8.80;67.80
76211;DHT22;65003;49.518;11.280;2022-12-29T00:35:50;8.80;67.50
76211;DHT22;65003;49.518;11.280;2022-12-29T00:38:13;8.80;68.10
76211;DHT22;65003;49.518;11.280;2022-12-29T00:40:46;8.80;67.70
76211;DHT22;65003;49.518;11.280;2022-12-29T00:43:33;8.90;67.60
76211;DHT22;65003;49.518;11.280;2022-12-29T00:46:06;8.90;67.60
76211;DHT22;65003;49.518;11.280;2022-12-29T00:48:33;8.90;67.30
76211;DHT22;65003;49.518;11.280;2022-12-29T00:51:05;8.90;67.00
76211;DHT22;65003;49.518;11.280;2022-12-29T00:53:32;9.00;67.20
76211;DHT22;65003;49.518;11.280;2022-12-29T00:55:58;9.00;67.00
76211;DHT22;65003;49.518;11.280;2022-12-29T00:58:32;9.00;67.20
76211;DHT22;65003;49.518;11.280;2022-12-29T01:01:03;9.00;67.30
76211;DHT22;65003;49.518;11.280;2022-12-29T01:03:30;9.00;67.30
76211;DHT22;65003;49.518;11.280;2022-12-29T01:05:56;9.00;67.50
76211;DHT22;65003;49.518;11.280;2022-12-29T01:08:23;9.00;67.50
76211;DHT22;65003;49.518;11.280;2022-12-29T01:10:59;9.00;67.50
76211;DHT22;65003;49.518;11.280;2022-12-29T01:13:25;9.00;67.30
76211;DHT22;65003;49.518;11.280;2022-12-29T01:15:53;9.00;67.50
76211;DHT22;65003;49.518;11.280;2022-12-29T01:18:20;9.00;67.80
76211;DHT22;65003;49.518;11.280;2022-12-29T01:20:46;9.00;67.90
76211;DHT22;65003;49.518;11.280;2022-12-29T01:23:12;9.10;67.90
76211;DHT22;65003;49.518;11.280;2022-12-29T01:25:39;9.20;67.40
76211;DHT22;65003;49.518;11.280;2022-12-29T01:28:06;9.20;67.60
76211;DHT22;65003;49.518;11.280;2022-12-29T01:30:32;9.20;67.80
76211;DHT22;65003;49.518;11.280;2022-12-29T01:32:59;9.10;67.80
76211;DHT22;65003;49.518;11.280;2022-12-29T01:35:25;9.20;67.20
76211;DHT22;65003;49.518;11.280;2022-12-29T01:37:52;9.30;67.30
76211;DHT22;65003;49.518;11.280;2022-12-29T01:40:19;9.30;67.20
76211;DHT22;65003;49.518;11.280;2022-12-29T01:42:46;9.30;67.30
76211;DHT22;65003;49.518;11.280;2022-12-29T01:45:13;9.60;67.20
76211;DHT22;65003;49.518;11.280;2022-12-29T01:47:59;9.30;67.00
76211;DHT22;65003;49.518;11.280;2022-12-29T01:50:28;9.30;66.60
76211;DHT22;65003;49.518;11.280;2022-12-29T01:53:04;9.30;66.80
76211;DHT22;65003;49.518;11.280;2022-12-29T01:55:30;9.40;66.70
76211;DHT22;65003;49.518;11.280;2022-12-29T01:57:56;9.30;66.90
76211;DHT22;65003;49.518;11.280;2022-12-29T02:00:23;9.30;66.50
76211;DHT22;65003;49.518;11.280;2022-12-29T02:02:51;9.40;66.90
76211;DHT22;65003;49.518;11.280;2022-12-29T02:05:26;9.40;66.70
76211;DHT22;65003;49.518;11.280;2022-12-29T02:07:50;9.40;66.80
76211;DHT22;65003;49.518;11.280;2022-12-29T02:10:17;9.40;66.60
76211;DHT22;65003;49.518;11.280;2022-12-29T02:12:43;9.40;66.30
76211;DHT22;65003;49.518;11.280;2022-12-29T02:15:11;9.50;66.30
76211;DHT22;65003;49.518;11.280;2022-12-29T02:23:48;9.40;66.70
76211;DHT22;65003;49.518;11.280;2022-12-29T02:26:24;9.50;66.60
76211;DHT22;65003;49.518;11.280;2022-12-29T02:28:57;9.50;66.40
76211;DHT22;65003;49.518;11.280;2022-12-29T02:31:26;9.50;66.20
76211;DHT22;65003;49.518;11.280;2022-12-29T02:34:11;9.50;66.20
76211;DHT22;65003;49.518;11.280;2022-12-29T02:36:42;9.60;66.20
76211;DHT22;65003;49.518;11.280;2022-12-29T02:39:17;9.60;66.40
76211;DHT22;65003;49.518;11.280;2022-12-29T02:41:46;9.60;66.50
76211;DHT22;65003;49.518;11.280;2022-12-29T02:44:19;9.60;66.30
76211;DHT22;65003;49.518;11.280;2022-12-29T02:46:47;9.60;66.10
76211;DHT22;65003;49.518;11.280;2022-12-29T02:49:13;9.60;65.90
76211;DHT22;65003;49.518;11.280;2022-12-29T02:51:46;9.70;65.70
76211;DHT22;65003;49.518;11.280;2022-12-29T02:54:10;9.70;65.70
76211;DHT22;65003;49.518;11.280;2022-12-29T02:56:42;9.70;65.50
76211;DHT22;65003;49.518;11.280;2022-12-29T02:59:09;9.70;66.20
76211;DHT22;65003;49.518;11.280;2022-12-29T03:04:21;9.70;65.40
76211;DHT22;65003;49.518;11.280;2022-12-29T03:06:51;9.80;65.30
76211;DHT22;65003;49.518;11.280;2022-12-29T03:09:17;9.80;65.00
76211;DHT22;65003;49.518;11.280;2022-12-29T03:11:45;9.80;65.10
76211;DHT22;65003;49.518;11.280;2022-12-29T03:14:16;9.70;65.30
76211;DHT22;65003;49.518;11.280;2022-12-29T03:16:48;9.70;65.20
76211;DHT22;65003;49.518;11.280;2022-12-29T03:19:16;9.80;65.60
76211;DHT22;65003;49.518;11.280;2022-12-29T03:21:44;9.70;65.40
76211;DHT22;65003;49.518;11.280;2022-12-29T03:24:15;9.70;65.20
76211;DHT22;65003;49.518;11.280;2022-12-29T03:26:42;9.80;64.80
76211;DHT22;65003;49.518;11.280;2022-12-29T03:29:09;9.80;64.70
76211;DHT22;65003;49.518;11.280;2022-12-29T03:31:36;9.80;65.00
76211;DHT22;65003;49.518;11.280;2022-12-29T03:34:03;9.80;65.10
76211;DHT22;65003;49.518;11.280;2022-12-29T03:36:32;10.10;65.20
76211;DHT22;65003;49.518;11.280;2022-12-29T03:39:02;9.80;65.00
76211;DHT22;65003;49.518;11.280;2022-12-29T03:41:28;9.80;65.00
76211;DHT22;65003;49.518;11.280;2022-12-29T03:43:54;9.80;65.10
76211;DHT22;65003;49.518;11.280;2022-12-29T03:46:22;9.80;64.90
76211;DHT22;65003;49.518;11.280;2022-12-29T03:48:48;9.90;64.60
76211;DHT22;65003;49.518;11.280;2022-12-29T03:51:15;9.90;64.10
76211;DHT22;65003;49.518;11.280;2022-12-29T03:53:41;9.90;64.40
76211;DHT22;65003;49.518;11.280;2022-12-29T03:56:08;9.90;65.00
76211;DHT22;65003;49.518;11.280;2022-12-29T03:58:34;9.90;64.20
76211;DHT22;65003;49.518;11.280;2022-12-29T04:01:01;9.90;64.40
76211;DHT22;65003;49.518;11.280;2022-12-29T04:03:28;9.90;64.20
76211;DHT22;65003;49.518;11.280;2022-12-29T04:05:56;10.00;63.90
76211;DHT22;65003;49.518;11.280;2022-12-29T04:08:22;10.00;63.70
76211;DHT22;65003;49.518;11.280;2022-12-29T04:10:49;10.00;63.80
76211;DHT22;65003;49.518;11.280;2022-12-29T04:13:15;10.00;63.60
76211;DHT22;65003;49.518;11.280;2022-12-29T04:15:43;9.90;63.80
76211;DHT22;65003;49.518;11.280;2022-12-29T04:18:09;10.00;63.70
76211;DHT22;65003;49.518;11.280;2022-12-29T04:20:37;10.00;63.50
76211;DHT22;65003;49.518;11.280;2022-12-29T04:23:09;10.00;63.70
76211;DHT22;65003;49.518;11.280;2022-12-29T04:25:35;10.00;63.30
76211;DHT22;65003;49.518;11.280;2022-12-29T04:28:03;10.00;63.90
76211;DHT22;65003;49.518;11.280;2022-12-29T04:30:30;10.00;62.90
76211;DHT22;65003;49.518;11.280;2022-12-29T04:32:56;10.00;63.00
76211;DHT22;65003;49.518;11.280;2022-12-29T04:35:23;10.10;62.90
76211;DHT22;65003;49.518;11.280;2022-12-29T04:37:49;10.10;62.60
76211;DHT22;65003;49.518;11.280;2022-12-29T04:40:16;10.20;62.10
76211;DHT22;65003;49.518;11.280;2022-12-29T04:42:44;10.10;62.10
76211;DHT22;65003;49.518;11.280;2022-12-29T04:45:11;10.10;62.30
76211;DHT22;65003;49.518;11.280;2022-12-29T04:47:37;10.10;62.60
76211;DHT22;65003;49.518;11.280;2022-12-29T04:50:05;10.10;62.30
76211;DHT22;65003;49.518;11.280;2022-12-29T04:52:32;10.10;62.20
76211;DHT22;65003;49.518;11.280;2022-12-29T04:54:59;10.20;63.10
76211;DHT22;65003;49.518;11.280;2022-12-29T04:57:26;10.20;62.30
76211;DHT22;65003;49.518;11.280;2022-12-29T04:59:53;10.20;61.70
76211;DHT22;65003;49.518;11.280;2022-12-29T05:02:19;10.20;61.90
76211;DHT22;65003;49.518;11.280;2022-12-29T05:04:46;10.20;62.00
76211;DHT22;65003;49.518;11.280;2022-12-29T05:07:13;10.20;61.70
76211;DHT22;65003;49.518;11.280;2022-12-29T05:09:39;10.20;62.00
76211;DHT22;65003;49.518;11.280;2022-12-29T05:12:06;10.20;62.30
76211;DHT22;65003;49.518;11.280;2022-12-29T05:14:32;10.20;62.20
76211;DHT22;65003;49.518;11.280;2022-12-29T05:17:00;10.20;62.20
76211;DHT22;65003;49.518;11.280;2022-12-29T05:19:26;10.20;62.00
76211;DHT22;65003;49.518;11.280;2022-12-29T05:21:53;10.10;62.30
76211;DHT22;65003;49.518;11.280;2022-12-29T05:24:20;10.10;62.30
76211;DHT22;65003;49.518;11.280;2022-12-29T05:26:47;10.10;63.40
76211;DHT22;65003;49.518;11.280;2022-12-29T05:29:13;10.10;62.30
76211;DHT22;65003;49.518;11.280;2022-12-29T05:31:40;10.10;62.60
76211;DHT22;65003;49.518;11.280;2022-12-29T05:34:06;10.10;62.70
76211;DHT22;65003;49.518;11.280;2022-12-29T05:36:33;10.10;62.70
76211;DHT22;65003;49.518;11.280;2022-12-29T05:39:00;10.00;62.50
76211;DHT22;65003;49.518;11.280;2022-12-29T05:41:27;10.10;62.30
76211;DHT22;65003;49.518;11.280;2022-12-29T05:43:54;10.00;62.50
76211;DHT22;65003;49.518;11.280;2022-12-29T05:46:20;10.00;62.80
76211;DHT22;65003;49.518;11.280;2022-12-29T05:48:47;10.10;62.50
76211;DHT22;65003;49.518;11.280;2022-12-29T05:51:13;10.00;62.20
76211;DHT22;65003;49.518;11.280;2022-12-29T05:53:40;10.10;62.30
76211;DHT22;65003;49.518;11.280;2022-12-29T05:56:07;10.10;62.20
76211;DHT22;65003;49.518;11.280;2022-12-29T05:58:34;10.10;62.10
76211;DHT22;65003;49.518;11.280;2022-12-29T06:01:00;10.00;63.00
76211;DHT22;65003;49.518;11.280;2022-12-29T06:03:27;9.90;62.60
76211;DHT22;65003;49.518;11.280;2022-12-29T06:05:54;9.90;63.50
76211;DHT22;65003;49.518;11.280;2022-12-29T06:08:21;9.80;62.90
76211;DHT22;65003;49.518;11.280;2022-12-29T06:10:47;9.80;63.20
76211;DHT22;65003;49.518;11.280;2022-12-29T06:13:14;9.70;63.30
76211;DHT22;65003;49.518;11.280;2022-12-29T06:15:41;9.70;63.60
76211;DHT22;65003;49.518;11.280;2022-12-29T06:18:07;9.60;63.90
76211;DHT22;65003;49.518;11.280;2022-12-29T06:20:34;9.50;64.10
76211;DHT22;65003;49.518;11.280;2022-12-29T06:23:00;9.50;64.30
76211;DHT22;65003;49.518;11.280;2022-12-29T06:25:27;9.50;64.20
76211;DHT22;65003;49.518;11.280;2022-12-29T06:27:54;9.40;64.50
76211;DHT22;65003;49.518;11.280;2022-12-29T06:30:21;9.40;64.10
76211;DHT22;65003;49.518;11.280;2022-12-29T06:32:48;9.40;64.40
76211;DHT22;65003;49.518;11.280;2022-12-29T06:35:15;9.40;64.20
76211;DHT22;65003;49.518;11.280;2022-12-29T06:37:42;9.30;65.00
76211;DHT22;65003;49.518;11.280;2022-12-29T06:40:09;9.30;64.30
76211;DHT22;65003;49.518;11.280;2022-12-29T06:42:35;9.30;64.20
76211;DHT22;65003;49.518;11.280;2022-12-29T06:45:02;9.30;64.00
76211;DHT22;65003;49.518;11.280;2022-12-29T06:47:29;9.20;63.90
76211;DHT22;65003;49.518;11.280;2022-12-29T06:49:55;9.20;63.80
76211;DHT22;65003;49.518;11.280;2022-12-29T06:52:22;9.20;63.60
76211;DHT22;65003;49.518;11.280;2022-12-29T06:54:49;9.30;63.60
76211;DHT22;65003;49.518;11.280;2022-12-29T06:57:15;9.20;63.60
76211;DHT22;65003;49.518;11.280;2022-12-29T06:59:42;9.20;63.30
76211;DHT22;65003;49.518;11.280;2022-12-29T07:02:10;9.20;63.40
76211;DHT22;65003;49.518;11.280;2022-12-29T07:04:37;9.20;63.40
76211;DHT22;65003;49.518;11.280;2022-12-29T07:07:03;9.20;63.50
76211;DHT22;65003;49.518;11.280;2022-12-29T07:09:30;9.10;63.50
76211;DHT22;65003;49.518;11.280;2022-12-29T07:11:57;9.10;63.30
76211;DHT22;65003;49.518;11.280;2022-12-29T07:14:24;9.20;63.40
76211;DHT22;65003;49.518;11.280;2022-12-29T07:16:50;9.20;63.30
76211;DHT22;65003;49.518;11.280;2022-12-29T07:19:17;9.10;63.40
76211;DHT22;65003;49.518;11.280;2022-12-29T07:21:44;9.10;63.50
76211;DHT22;65003;49.518;11.280;2022-12-29T07:24:11;9.00;63.50
76211;DHT22;65003;49.518;11.280;2022-12-29T07:26:39;9.00;63.80
76211;DHT22;65003;49.518;11.280;2022-12-29T07:29:06;9.00;63.60
76211;DHT22;65003;49.518;11.280;2022-12-29T07:31:32;9.10;63.60
76211;DHT22;65003;49.518;11.280;2022-12-29T07:33:59;9.10;63.70
76211;DHT22;65003;49.518;11.280;2022-12-29T07:36:26;9.00;64.60
76211;DHT22;65003;49.518;11.280;2022-12-29T07:38:52;9.10;63.90
76211;DHT22;65003;49.518;11.280;2022-12-29T07:41:19;9.10;63.90
76211;DHT22;65003;49.518;11.280;2022-12-29T07:43:47;9.10;64.00
76211;DHT22;65003;49.518;11.280;2022-12-29T07:46:13;9.10;64.10
76211;DHT22;65003;49.518;11.280;2022-12-29T07:48:40;9.10;64.20
76211;DHT22;65003;49.518;11.280;2022-12-29T07:51:06;9.10;64.10
76211;DHT22;65003;49.518;11.280;2022-12-29T07:53:33;9.10;63.60
76211;DHT22;65003;49.518;11.280;2022-12-29T07:55:59;9.20;63.90
76211;DHT22;65003;49.518;11.280;2022-12-29T07:58:26;9.20;63.40
76211;DHT22;65003;49.518;11.280;2022-12-29T08:00:54;9.30;63.20
76211;DHT22;65003;49.518;11.280;2022-12-29T08:03:20;9.30;63.30
76211;DHT22;65003;49.518;11.280;2022-12-29T08:05:47;9.40;63.20
76211;DHT22;65003;49.518;11.280;2022-12-29T08:08:13;9.40;62.90
76211;DHT22;65003;49.518;11.280;2022-12-29T08:10:40;9.50;62.70
76211;DHT22;65003;49.518;11.280;2022-12-29T08:13:08;9.60;62.50
76211;DHT22;65003;49.518;11.280;2022-12-29T08:15:34;9.60;62.20
76211;DHT22;65003;49.518;11.280;2022-12-29T08:18:00;9.60;62.10
76211;DHT22;65003;49.518;11.280;2022-12-29T08:20:27;9.60;62.50
76211;DHT22;65003;49.518;11.280;2022-12-29T08:22:53;9.70;62.30
76211;DHT22;65003;49.518;11.280;2022-12-29T08:25:20;9.80;63.60
76211;DHT22;65003;49.518;11.280;2022-12-29T08:27:47;10.00;63.40
76211;DHT22;65003;49.518;11.280;2022-12-29T08:30:13;10.10;63.30
76211;DHT22;65003;49.518;11.280;2022-12-29T08:32:41;10.20;62.90
76211;DHT22;65003;49.518;11.280;2022-12-29T08:35:08;10.20;63.00
76211;DHT22;65003;49.518;11.280;2022-12-29T08:37:35;10.30;62.90
76211;DHT22;65003;49.518;11.280;2022-12-29T08:40:01;10.40;62.10
76211;DHT22;65003;49.518;11.280;2022-12-29T08:42:29;10.50;61.80
76211;DHT22;65003;49.518;11.280;2022-12-29T08:44:55;10.60;61.20
76211;DHT22;65003;49.518;11.280;2022-12-29T08:47:22;10.80;61.40
76211;DHT22;65003;49.518;11.280;2022-12-29T08:49:48;10.80;60.70
76211;DHT22;65003;49.518;11.280;2022-12-29T08:52:15;10.90;60.40
76211;DHT22;65003;49.518;11.280;2022-12-29T08:54:41;11.00;60.90
76211;DHT22;65003;49.518;11.280;2022-12-29T08:57:09;11.00;60.40
76211;DHT22;65003;49.518;11.280;2022-12-29T08:59:35;11.10;60.70
76211;DHT22;65003;49.518;11.280;2022-12-29T09:02:02;11.30;60.50
76211;DHT22;65003;49.518;11.280;2022-12-29T09:04:28;11.40;60.40
76211;DHT22;65003;49.518;11.280;2022-12-29T09:06:55;11.40;60.10
76211;DHT22;65003;49.518;11.280;2022-12-29T09:09:21;11.40;60.50
76211;DHT22;65003;49.518;11.280;2022-12-29T09:11:48;11.40;60.70
76211;DHT22;65003;49.518;11.280;2022-12-29T09:14:15;11.40;60.80
76211;DHT22;65003;49.518;11.280;2022-12-29T09:16:41;11.50;61.00
76211;DHT22;65003;49.518;11.280;2022-12-29T09:19:13;11.50;60.90
76211;DHT22;65003;49.518;11.280;2022-12-29T09:21:40;11.60;60.80
76211;DHT22;65003;49.518;11.280;2022-12-29T09:24:07;11.70;60.80
76211;DHT22;65003;49.518;11.280;2022-12-29T09:26:33;11.90;59.90
76211;DHT22;65003;49.518;11.280;2022-12-29T09:29:00;12.00;59.70
76211;DHT22;65003;49.518;11.280;2022-12-29T09:31:26;12.20;59.80
76211;DHT22;65003;49.518;11.280;2022-12-29T09:33:53;12.40;59.80
76211;DHT22;65003;49.518;11.280;2022-12-29T09:36:19;12.50;59.20
76211;DHT22;65003;49.518;11.280;2022-12-29T09:38:46;12.70;58.90
76211;DHT22;65003;49.518;11.280;2022-12-29T09:41:20;12.80;58.30
76211;DHT22;65003;49.518;11.280;2022-12-29T09:46:25;13.00;58.30
76211;DHT22;65003;49.518;11.280;2022-12-29T09:49:00;13.20;57.90
76211;DHT22;65003;49.518;11.280;2022-12-29T09:51:22;13.20;57.60
76211;DHT22;65003;49.518;11.280;2022-12-29T09:54:00;13.30;57.90
76211;DHT22;65003;49.518;11.280;2022-12-29T09:56:25;13.30;57.70
76211;DHT22;65003;49.518;11.280;2022-12-29T10:01:42;13.10;57.60
76211;DHT22;65003;49.518;11.280;2022-12-29T10:04:08;13.00;58.20
76211;DHT22;65003;49.518;11.280;2022-12-29T10:06:54;13.00;58.60
76211;DHT22;65003;49.518;11.280;2022-12-29T10:09:33;12.90;58.40
76211;DHT22;65003;49.518;11.280;2022-12-29T10:14:47;13.20;58.10
76211;DHT22;65003;49.518;11.280;2022-12-29T10:20:00;13.00;58.30
76211;DHT22;65003;49.518;11.280;2022-12-29T10:22:29;12.90;58.70
76211;DHT22;65003;49.518;11.280;2022-12-29T10:24:50;12.80;59.00
76211;DHT22;65003;49.518;11.280;2022-12-29T10:27:17;12.70;59.40
76211;DHT22;65003;49.518;11.280;2022-12-29T10:29:48;12.50;60.10
76211;DHT22;65003;49.518;11.280;2022-12-29T10:32:49;12.40;60.20
76211;DHT22;65003;49.518;11.280;2022-12-29T10:34:58;12.30;60.70
76211;DHT22;65003;49.518;11.280;2022-12-29T10:37:30;12.10;60.70
76211;DHT22;65003;49.518;11.280;2022-12-29T10:39:55;12.10;61.60
76211;DHT22;65003;49.518;11.280;2022-12-29T10:42:28;12.00;61.60
76211;DHT22;65003;49.518;11.280;2022-12-29T10:44:54;12.00;62.00
76211;DHT22;65003;49.518;11.280;2022-12-29T10:47:23;12.00;61.90
76211;DHT22;65003;49.518;11.280;2022-12-29T10:49:48;12.00;62.10
76211;DHT22;65003;49.518;11.280;2022-12-29T10:52:15;12.10;61.90
76211;DHT22;65003;49.518;11.280;2022-12-29T10:54:45;12.10;62.20
76211;DHT22;65003;49.518;11.280;2022-12-29T10:57:18;12.10;62.20
76211;DHT22;65003;49.518;11.280;2022-12-29T10:59:41;12.20;62.00
76211;DHT22;65003;49.518;11.280;2022-12-29T11:02:34;12.20;62.00
76211;DHT22;65003;49.518;11.280;2022-12-29T11:05:00;12.30;61.90
76211;DHT22;65003;49.518;11.280;2022-12-29T11:07:26;12.30;61.70
76211;DHT22;65003;49.518;11.280;2022-12-29T11:09:52;12.40;61.60
76211;DHT22;65003;49.518;11.280;2022-12-29T11:12:25;12.50;61.40
76211;DHT22;65003;49.518;11.280;2022-12-29T11:15:13;12.60;61.30
76211;DHT22;65003;49.518;11.280;2022-12-29T11:17:45;12.60;61.40
76211;DHT22;65003;49.518;11.280;2022-12-29T11:20:35;12.50;61.60
76211;DHT22;65003;49.518;11.280;2022-12-29T11:23:01;12.50;61.90
76211;DHT22;65003;49.518;11.280;2022-12-29T11:25:27;12.50;61.90
76211;DHT22;65003;49.518;11.280;2022-12-29T11:27:59;12.60;62.20
76211;DHT22;65003;49.518;11.280;2022-12-29T11:30:24;12.70;61.70
76211;DHT22;65003;49.518;11.280;2022-12-29T11:32:51;12.80;61.30
76211;DHT22;65003;49.518;11.280;2022-12-29T11:35:30;12.90;61.20
76211;DHT22;65003;49.518;11.280;2022-12-29T11:37:56;13.10;60.80
76211;DHT22;65003;49.518;11.280;2022-12-29T11:40:22;13.20;60.50
76211;DHT22;65003;49.518;11.280;2022-12-29T11:42:50;13.30;59.90
76211;DHT22;65003;49.518;11.280;2022-12-29T11:45:22;13.40;59.90
76211;DHT22;65003;49.518;11.280;2022-12-29T11:47:55;13.40;59.50
76211;DHT22;65003;49.518;11.280;2022-12-29T11:50:21;13.40;59.60
76211;DHT22;65003;49.518;11.280;2022-12-29T11:52:47;13.40;59.40
76211;DHT22;65003;49.518;11.280;2022-12-29T11:55:18;13.30;59.80
76211;DHT22;65003;49.518;11.280;2022-12-29T11:57:43;13.30;60.30
76211;DHT22;65003;49.518;11.280;2022-12-29T12:00:15;13.40;59.90
76211;DHT22;65003;49.518;11.280;2022-12-29T12:02:44;13.50;59.50
76211;DHT22;65003;49.518;11.280;2022-12-29T12:05:18;13.60;59.80
76211;DHT22;65003;49.518;11.280;2022-12-29T12:07:42;13.70;59.10
76211;DHT22;65003;49.518;11.280;2022-12-29T12:10:12;13.60;59.30
76211;DHT22;65003;49.518;11.280;2022-12-29T12:12:47;13.60;59.40
76211;DHT22;65003;49.518;11.280;2022-12-29T12:15:20;13.50;60.00
76211;DHT22;65003;49.518;11.280;2022-12-29T12:17:51;13.60;59.90
76211;DHT22;65003;49.518;11.280;2022-12-29T12:22:58;13.60;59.90
76211;DHT22;65003;49.518;11.280;2022-12-29T12:25:27;13.60;60.40
76211;DHT22;65003;49.518;11.280;2022-12-29T12:27:56;13.60;60.60
76211;DHT22;65003;49.518;11.280;2022-12-29T12:30:22;13.60;60.60
76211;DHT22;65003;49.518;11.280;2022-12-29T12:32:52;13.70;60.20
76211;DHT22;65003;49.518;11.280;2022-12-29T12:35:23;13.60;60.70
76211;DHT22;65003;49.518;11.280;2022-12-29T12:37:59;13.60;60.80
76211;DHT22;65003;49.518;11.280;2022-12-29T12:46:46;13.60;61.40
76211;DHT22;65003;49.518;11.280;2022-12-29T12:48:25;13.60;61.30
76211;DHT22;65003;49.518;11.280;2022-12-29T12:56:03;13.40;62.20
76211;DHT22;65003;49.518;11.280;2022-12-29T12:58:51;13.30;62.20
76211;DHT22;65003;49.518;11.280;2022-12-29T13:01:38;13.30;62.90
76211;DHT22;65003;49.518;11.280;2022-12-29T13:04:16;13.30;62.60
76211;DHT22;65003;49.518;11.280;2022-12-29T13:06:44;13.30;62.70
76211;DHT22;65003;49.518;11.280;2022-12-29T13:09:28;13.40;63.30
76211;DHT22;65003;49.518;11.280;2022-12-29T13:12:13;13.40;63.10
76211;DHT22;65003;49.518;11.280;2022-12-29T13:14:44;13.40;62.80
76211;DHT22;65003;49.518;11.280;2022-12-29T13:17:13;13.20;63.30
76211;DHT22;65003;49.518;11.280;2022-12-29T13:19:45;13.20;63.90
76211;DHT22;65003;49.518;11.280;2022-12-29T13:25:05;13.00;64.20
76211;DHT22;65003;49.518;11.280;2022-12-29T13:27:32;13.00;64.40
76211;DHT22;65003;49.518;11.280;2022-12-29T13:32:39;13.00;64.60
76211;DHT22;65003;49.518;11.280;2022-12-29T13:35:25;12.90;65.00
76211;DHT22;65003;49.518;11.280;2022-12-29T13:37:56;12.90;65.40
76211;DHT22;65003;49.518;11.280;2022-12-29T13:40:24;12.80;65.90
76211;DHT22;65003;49.518;11.280;2022-12-29T13:42:49;12.70;66.30
76211;DHT22;65003;49.518;11.280;2022-12-29T13:45:17;12.70;66.70
76211;DHT22;65003;49.518;11.280;2022-12-29T13:47:44;12.70;67.20
76211;DHT22;65003;49.518;11.280;2022-12-29T13:50:15;12.70;67.10
76211;DHT22;65003;49.518;11.280;2022-12-29T13:52:47;12.60;67.20
76211;DHT22;65003;49.518;11.280;2022-12-29T13:55:19;12.70;67.20
76211;DHT22;65003;49.518;11.280;2022-12-29T13:57:51;12.60;67.20
76211;DHT22;65003;49.518;11.280;2022-12-29T14:00:16;12.60;66.70
76211;DHT22;65003;49.518;11.280;2022-12-29T14:03:10;12.70;67.00
76211;DHT22;65003;49.518;11.280;2022-12-29T14:05:31;12.60;66.60
76211;DHT22;65003;49.518;11.280;2022-12-29T14:08:00;12.60;66.80
76211;DHT22;65003;49.518;11.280;2022-12-29T14:10:31;12.60;67.10
76211;DHT22;65003;49.518;11.280;2022-12-29T14:13:16;12.60;66.90
76211;DHT22;65003;49.518;11.280;2022-12-29T14:15:43;12.50;66.60
76211;DHT22;65003;49.518;11.280;2022-12-29T14:18:18;12.50;67.10
76211;DHT22;65003;49.518;11.280;2022-12-29T14:21:07;12.50;67.10
76211;DHT22;65003;49.518;11.280;2022-12-29T14:23:38;12.50;68.10
76211;DHT22;65003;49.518;11.280;2022-12-29T14:26:15;12.50;67.30
76211;DHT22;65003;49.518;11.280;2022-12-29T14:28:41;12.50;67.30
76211;DHT22;65003;49.518;11.280;2022-12-29T14:36:53;12.40;67.50
76211;DHT22;65003;49.518;11.280;2022-12-29T14:39:43;12.30;67.40
76211;DHT22;65003;49.518;11.280;2022-12-29T14:42:19;12.40;68.30
76211;DHT22;65003;49.518;11.280;2022-12-29T14:44:49;12.30;68.30
76211;DHT22;65003;49.518;11.280;2022-12-29T14:47:32;12.30;68.60
76211;DHT22;65003;49.518;11.280;2022-12-29T14:50:06;12.20;68.90
76211;DHT22;65003;49.518;11.280;2022-12-29T14:52:32;12.20;69.20
76211;DHT22;65003;49.518;11.280;2022-12-29T14:54:59;12.20;69.50
76211;DHT22;65003;49.518;11.280;2022-12-29T14:57:29;12.20;69.80
76211;DHT22;65003;49.518;11.280;2022-12-29T15:00:05;12.20;69.90
76211;DHT22;65003;49.518;11.280;2022-12-29T15:02:33;12.10;70.00
76211;DHT22;65003;49.518;11.280;2022-12-29T15:04:59;12.20;69.90
76211;DHT22;65003;49.518;11.280;2022-12-29T15:07:25;12.10;70.30
76211;DHT22;65003;49.518;11.280;2022-12-29T15:09:53;12.10;70.60
76211;DHT22;65003;49.518;11.280;2022-12-29T15:12:28;12.00;70.70
76211;DHT22;65003;49.518;11.280;2022-12-29T15:14:53;12.00;70.90
76211;DHT22;65003;49.518;11.280;2022-12-29T15:17:33;12.00;71.00
76211;DHT22;65003;49.518;11.280;2022-12-29T15:20:01;12.00;71.30
76211;DHT22;65003;49.518;11.280;2022-12-29T15:22:27;12.00;71.00
76211;DHT22;65003;49.518;11.280;2022-12-29T15:24:54;12.00;71.00
76211;DHT22;65003;49.518;11.280;2022-12-29T15:27:22;12.00;71.20
76211;DHT22;65003;49.518;11.280;2022-12-29T15:29:47;12.00;71.20
76211;DHT22;65003;49.518;11.280;2022-12-29T15:32:19;12.00;71.30
76211;DHT22;65003;49.518;11.280;2022-12-29T15:34:45;12.00;71.30
76211;DHT22;65003;49.518;11.280;2022-12-29T15:37:27;12.00;71.40
76211;DHT22;65003;49.518;11.280;2022-12-29T15:39:53;11.90;71.40
76211;DHT22;65003;49.518;11.280;2022-12-29T15:42:31;11.90;71.40
76211;DHT22;65003;49.518;11.280;2022-12-29T15:44:55;11.90;71.50
76211;DHT22;65003;49.518;11.280;2022-12-29T15:47:22;11.90;71.50
76211;DHT22;65003;49.518;11.280;2022-12-29T15:49:51;11.90;71.50
76211;DHT22;65003;49.518;11.280;2022-12-29T15:52:19;11.90;71.60
76211;DHT22;65003;49.518;11.280;2022-12-29T15:54:45;11.90;71.60
76211;DHT22;65003;49.518;11.280;2022-12-29T15:57:22;11.90;71.80
76211;DHT22;65003;49.518;11.280;2022-12-29T15:59:47;11.90;71.80
76211;DHT22;65003;49.518;11.280;2022-12-29T16:02:13;11.90;71.80
76211;DHT22;65003;49.518;11.280;2022-12-29T16:04:40;11.90;71.60
76211;DHT22;65003;49.518;11.280;2022-12-29T16:07:20;11.90;72.30
76211;DHT22;65003;49.518;11.280;2022-12-29T16:09:36;11.90;71.80
76211;DHT22;65003;49.518;11.280;2022-12-29T16:12:03;11.80;71.90
76211;DHT22;65003;49.518;11.280;2022-12-29T16:14:32;11.80;72.10
76211;DHT22;65003;49.518;11.280;2022-12-29T16:16:58;11.80;72.10